Time;durP1;ratioP1;P1;durP2;ratioP2;P2;SDS_P1;SDS_P2;PMS_P1;PMS_P2;Temp;Humidity;BMP_temperature;BMP_pressure;BME280_temperature;BME280_humidity;BME280_pressure;Samples;Min_cycle;Max_cycle;Signal;HPM_P1;HPM_P2
2023/06/25 00:00:00;;;;;;;6.63;5.05;;;18.80;99.90;;;;;;5070391;28;20032;-62
2023/06/25 00:02:25;;;;;;;6.35;5.00;;;18.80;99.90;;;;;;5069787;27;20116;-62
2023/06/25 00:04:51;;;;;;;5.43;4.80;;;18.70;99.90;;;;;;5070297;28;20032;-62
2023/06/25 00:07:17;;;;;;;8.18;5.65;;;18.70;99.90;;;;;;5069442;28;20041;-62
2023/06/25 00:09:54;;;;;;;6.20;5.25;;;18.60;99.90;;;;;;5070395;28;20147;-62
2023/06/25 00:12:20;;;;;;;8.40;5.18;;;18.60;99.90;;;;;;5069622;28;20057;-63
2023/06/25 00:14:46;;;;;;;6.45;5.20;;;18.60;99.90;;;;;;5069749;28;20430;-63
2023/06/25 00:17:17;;;;;;;6.05;5.00;;;18.60;99.90;;;;;;5074038;28;20388;-62
2023/06/25 00:19:45;;;;;;;7.15;5.30;;;18.60;99.90;;;;;;5070171;28;20099;-63
2023/06/25 00:22:12;;;;;;;7.28;5.38;;;18.50;99.90;;;;;;5068583;28;20597;-62
2023/06/25 00:24:38;;;;;;;7.03;5.68;;;18.50;99.90;;;;;;5070085;28;20040;-63
2023/06/25 00:27:04;;;;;;;6.32;5.05;;;18.50;99.90;;;;;;5069434;28;20097;-62
2023/06/25 00:29:30;;;;;;;7.68;5.40;;;18.40;99.90;;;;;;5069386;28;20169;-63
2023/06/25 00:31:56;;;;;;;7.30;5.95;;;18.60;99.90;;;;;;5068624;28;20508;-63
2023/06/25 00:34:21;;;;;;;9.20;5.95;;;18.40;99.90;;;;;;5069380;28;20044;-62
2023/06/25 00:36:51;;;;;;;7.78;5.28;;;18.30;99.90;;;;;;5069708;28;20044;-62
2023/06/25 00:39:17;;;;;;;11.27;6.57;;;18.30;99.90;;;;;;5068525;28;20078;-62
2023/06/25 00:41:43;;;;;;;7.35;5.85;;;18.30;99.90;;;;;;5069695;28;20044;-63
2023/06/25 00:44:09;;;;;;;8.63;6.30;;;18.30;99.90;;;;;;5068849;28;20029;-65
2023/06/25 00:46:34;;;;;;;7.63;6.07;;;18.30;99.90;;;;;;5069130;28;20275;-63
2023/06/25 00:49:05;;;;;;;6.85;5.40;;;18.30;99.90;;;;;;5069742;28;20028;-62
2023/06/25 00:51:34;;;;;;;8.05;5.68;;;18.20;99.90;;;;;;5068622;28;20546;-63
2023/06/25 00:54:00;;;;;;;8.43;5.82;;;18.20;99.90;;;;;;5069576;28;20059;-63
2023/06/25 00:56:29;;;;;;;7.22;5.70;;;18.20;99.90;;;;;;5067188;28;20475;-62
2023/06/25 00:59:01;;;;;;;8.30;5.93;;;18.10;99.90;;;;;;5069618;28;20024;-63
2023/06/25 01:01:44;;;;;;;7.25;5.90;;;18.20;99.90;;;;;;5068201;28;20400;-63
2023/06/25 01:04:19;;;;;;;7.63;5.47;;;18.10;99.90;;;;;;5068541;28;20037;-63
2023/06/25 01:06:48;;;;;;;6.35;5.50;;;18.20;99.90;;;;;;5069022;28;20028;-63
2023/06/25 01:09:16;;;;;;;8.13;5.78;;;18.10;99.90;;;;;;5068763;28;20443;-62
2023/06/25 01:12:07;;;;;;;7.13;5.85;;;18.10;99.90;;;;;;5069419;28;20438;-63
2023/06/25 01:14:33;;;;;;;6.90;5.32;;;18.00;99.90;;;;;;5049655;28;20025;-63
2023/06/25 01:16:59;;;;;;;7.13;5.60;;;18.00;99.90;;;;;;5066750;28;20582;-62
2023/06/25 01:19:29;;;;;;;6.35;5.25;;;17.90;99.90;;;;;;5068543;28;20051;-62
2023/06/25 01:21:59;;;;;;;7.30;5.32;;;18.00;99.90;;;;;;5069545;28;20024;-63
2023/06/25 01:24:26;;;;;;;6.78;5.10;;;17.90;99.90;;;;;;5067836;28;20033;-62
2023/06/25 01:26:55;;;;;;;6.97;5.47;;;17.90;99.90;;;;;;5069059;28;20041;-63
2023/06/25 01:29:21;;;;;;;7.78;5.38;;;17.90;99.90;;;;;;5068439;28;20057;-62
2023/06/25 01:31:47;;;;;;;9.32;5.88;;;18.10;99.90;;;;;;5068393;28;20071;-63
2023/06/25 01:34:12;;;;;;;7.45;5.50;;;18.00;99.90;;;;;;5067766;28;20528;-62
2023/06/25 01:36:40;;;;;;;7.45;5.88;;;17.90;99.90;;;;;;5068570;28;20107;-63
2023/06/25 01:39:06;;;;;;;6.40;5.65;;;17.90;99.90;;;;;;5068537;28;20028;-62
2023/06/25 01:41:33;;;;;;;6.45;5.47;;;17.90;99.90;;;;;;5067551;28;20196;-63
2023/06/25 01:43:58;;;;;;;7.72;5.72;;;17.80;99.90;;;;;;5068648;28;20113;-63
2023/06/25 01:46:24;;;;;;;9.65;5.82;;;17.90;99.90;;;;;;5067895;28;20480;-63
2023/06/25 01:48:50;;;;;;;8.15;5.30;;;17.70;99.90;;;;;;5067503;28;20024;-62
2023/06/25 01:51:15;;;;;;;8.98;5.88;;;17.60;99.90;;;;;;5067952;28;20021;-63
2023/06/25 01:53:41;;;;;;;7.18;5.78;;;17.60;99.90;;;;;;5068565;28;20029;-62
2023/06/25 01:56:06;;;;;;;7.10;5.75;;;17.70;99.90;;;;;;5067307;28;20025;-62
2023/06/25 01:58:32;;;;;;;6.50;5.65;;;17.70;99.90;;;;;;5067351;28;20032;-63
2023/06/25 02:00:57;;;;;;;7.10;5.65;;;17.70;99.90;;;;;;5068345;28;20024;-63
2023/06/25 02:03:23;;;;;;;7.40;5.65;;;17.70;99.90;;;;;;5068001;28;20111;-63
2023/06/25 02:05:48;;;;;;;10.43;6.03;;;17.60;99.90;;;;;;5067747;28;20036;-63
2023/06/25 02:08:14;;;;;;;6.93;5.82;;;17.60;99.90;;;;;;5067329;28;20033;-63
2023/06/25 02:10:39;;;;;;;8.60;5.60;;;17.70;99.90;;;;;;5068196;28;20119;-63
2023/06/25 02:13:05;;;;;;;9.43;6.18;;;17.60;99.90;;;;;;5067833;28;20031;-63
2023/06/25 02:15:31;;;;;;;8.27;5.60;;;17.60;99.90;;;;;;5067533;28;20377;-63
2023/06/25 02:17:56;;;;;;;7.65;5.65;;;17.60;99.90;;;;;;5068099;28;20384;-63
2023/06/25 02:20:22;;;;;;;7.35;5.50;;;17.70;99.90;;;;;;5067180;28;20040;-62
2023/06/25 02:22:48;;;;;;;9.43;5.38;;;17.60;99.90;;;;;;5068432;28;20029;-63
2023/06/25 02:25:13;;;;;;;11.02;5.40;;;17.50;99.90;;;;;;5067675;28;20037;-62
2023/06/25 02:27:39;;;;;;;6.93;5.53;;;17.50;99.90;;;;;;5067916;28;20678;-63
2023/06/25 02:30:05;;;;;;;7.68;5.40;;;17.50;99.90;;;;;;5066976;28;20032;-62
2023/06/25 02:32:31;;;;;;;7.82;5.00;;;17.40;99.90;;;;;;5067796;28;20036;-63
2023/06/25 02:34:56;;;;;;;7.38;5.80;;;17.40;99.90;;;;;;5067430;28;20097;-63
2023/06/25 02:37:22;;;;;;;8.40;5.80;;;17.50;99.90;;;;;;5067268;28;20151;-62
2023/06/25 02:39:47;;;;;;;8.40;5.22;;;17.40;99.90;;;;;;5067573;28;20035;-63
2023/06/25 02:42:13;;;;;;;7.68;5.75;;;17.40;99.90;;;;;;5067009;28;20032;-63
2023/06/25 02:44:39;;;;;;;8.75;5.72;;;17.40;99.90;;;;;;5067523;28;20492;-62
2023/06/25 02:47:04;;;;;;;5.85;5.07;;;17.40;99.90;;;;;;5065812;28;20031;-62
2023/06/25 02:49:30;;;;;;;12.18;5.50;;;17.50;99.90;;;;;;5067538;28;20150;-62
2023/06/25 02:51:56;;;;;;;9.20;5.80;;;17.40;99.90;;;;;;5067305;28;20111;-62
2023/06/25 02:54:21;;;;;;;7.82;5.45;;;17.40;99.90;;;;;;5067258;28;20133;-63
2023/06/25 02:56:47;;;;;;;9.57;5.50;;;17.40;99.90;;;;;;5067331;28;20036;-63
2023/06/25 02:59:12;;;;;;;12.68;6.20;;;17.40;99.90;;;;;;5067569;28;20090;-62
2023/06/25 03:01:38;;;;;;;9.18;5.60;;;17.40;99.90;;;;;;5067371;28;20033;-63
2023/06/25 03:04:04;;;;;;;8.35;5.65;;;17.30;99.90;;;;;;5066698;28;20033;-62
2023/06/25 03:06:29;;;;;;;9.07;5.93;;;17.30;99.90;;;;;;5067277;28;20035;-62
2023/06/25 03:08:55;;;;;;;10.50;5.90;;;17.30;99.90;;;;;;5067677;28;20130;-63
2023/06/25 03:11:20;;;;;;;9.13;5.93;;;17.40;99.90;;;;;;5066927;28;20037;-62
2023/06/25 03:13:46;;;;;;;13.57;5.78;;;17.40;99.90;;;;;;5067212;28;20043;-63
2023/06/25 03:16:11;;;;;;;6.78;5.32;;;17.30;99.90;;;;;;5067745;28;20029;-62
2023/06/25 03:18:37;;;;;;;9.05;5.53;;;17.30;99.90;;;;;;5068192;28;20236;-63
2023/06/25 03:21:03;;;;;;;8.73;5.63;;;17.20;99.90;;;;;;5069497;28;20021;-62
2023/06/25 03:23:28;;;;;;;6.63;5.60;;;17.20;99.90;;;;;;5071198;28;20028;-62
2023/06/25 03:25:54;;;;;;;9.80;6.00;;;17.30;99.90;;;;;;5056548;28;20032;-62
2023/06/25 03:28:19;;;;;;;8.18;6.13;;;17.30;99.90;;;;;;5049604;28;20037;-62
2023/06/25 03:30:46;;;;;;;7.93;5.90;;;17.20;99.90;;;;;;5056100;28;20564;-63
2023/06/25 03:33:12;;;;;;;6.20;5.20;;;17.20;99.90;;;;;;5070185;28;20052;-63
2023/06/25 03:35:37;;;;;;;9.05;6.35;;;17.20;99.90;;;;;;5070229;28;20133;-62
2023/06/25 03:38:03;;;;;;;8.65;6.15;;;17.20;99.90;;;;;;5070299;28;20017;-62
2023/06/25 03:40:28;;;;;;;7.57;6.15;;;17.20;99.90;;;;;;5070920;28;20053;-63
2023/06/25 03:42:54;;;;;;;6.95;5.68;;;17.20;99.90;;;;;;5070839;28;20120;-62
2023/06/25 03:45:19;;;;;;;8.85;6.47;;;17.20;99.90;;;;;;5071289;28;20070;-62
2023/06/25 03:47:45;;;;;;;9.43;5.82;;;17.20;99.90;;;;;;5070014;28;20070;-63
2023/06/25 03:50:10;;;;;;;8.73;6.18;;;17.30;99.90;;;;;;5069538;28;20040;-62
2023/06/25 03:52:36;;;;;;;8.43;5.88;;;17.30;99.90;;;;;;5071149;28;20041;-62
2023/06/25 03:55:02;;;;;;;7.53;5.50;;;17.30;99.90;;;;;;5069997;28;20030;-61
2023/06/25 03:57:29;;;;;;;7.75;5.68;;;17.30;99.90;;;;;;5067628;28;20070;-62
2023/06/25 03:59:54;;;;;;;8.18;6.03;;;17.40;99.90;;;;;;5050651;28;20064;-62
2023/06/25 04:02:20;;;;;;;8.27;6.07;;;17.30;99.90;;;;;;5068240;28;20446;-62
2023/06/25 04:04:45;;;;;;;10.02;5.85;;;17.40;99.90;;;;;;5070497;28;20496;-63
2023/06/25 04:07:11;;;;;;;9.00;6.22;;;17.40;99.90;;;;;;5070066;28;20035;-62
2023/06/25 04:09:37;;;;;;;7.20;5.72;;;17.40;99.90;;;;;;5058771;28;20032;-62
2023/06/25 04:12:02;;;;;;;8.25;6.00;;;17.40;99.90;;;;;;5050201;28;20025;-61
2023/06/25 04:14:28;;;;;;;10.18;6.25;;;17.40;99.90;;;;;;5050211;28;20494;-62
2023/06/25 04:16:54;;;;;;;10.13;5.90;;;17.40;99.90;;;;;;5066659;28;20056;-62
2023/06/25 04:19:19;;;;;;;8.10;5.50;;;17.40;99.90;;;;;;5069014;28;20551;-62
2023/06/25 04:21:45;;;;;;;11.02;6.43;;;17.40;99.90;;;;;;5070010;28;20036;-63
2023/06/25 04:24:10;;;;;;;10.20;6.22;;;17.50;99.90;;;;;;5069687;28;20044;-62
2023/06/25 04:26:36;;;;;;;7.78;5.90;;;17.50;99.90;;;;;;5070130;28;20475;-63
2023/06/25 04:29:02;;;;;;;8.77;6.15;;;17.60;99.90;;;;;;5069321;28;20025;-61
2023/06/25 04:31:28;;;;;;;9.63;6.40;;;17.60;99.90;;;;;;5069068;28;20135;-62
2023/06/25 04:33:53;;;;;;;9.65;7.03;;;17.70;99.90;;;;;;5070030;28;20124;-62
2023/06/25 04:36:22;;;;;;;8.27;6.40;;;17.70;99.90;;;;;;5069048;28;20107;-63
2023/06/25 04:38:47;;;;;;;8.50;6.90;;;17.80;99.90;;;;;;5063411;28;20024;-63
2023/06/25 04:41:13;;;;;;;8.98;6.75;;;17.80;99.90;;;;;;5049947;28;20023;-64
2023/06/25 04:43:38;;;;;;;8.52;7.05;;;17.90;99.90;;;;;;5070193;28;20036;-62
2023/06/25 04:46:04;;;;;;;9.10;7.05;;;17.90;99.90;;;;;;5067128;28;20041;-62
2023/06/25 04:48:29;;;;;;;10.73;7.20;;;18.00;99.90;;;;;;5067921;28;20112;-62
2023/06/25 04:50:55;;;;;;;11.73;8.07;;;18.00;99.90;;;;;;5069588;28;20069;-64
2023/06/25 04:53:21;;;;;;;11.63;8.13;;;18.10;99.90;;;;;;5059470;28;21131;-62
2023/06/25 04:55:46;;;;;;;13.32;7.80;;;18.40;99.90;;;;;;5054694;28;20028;-62
2023/06/25 04:58:12;;;;;;;12.43;8.02;;;18.50;99.90;;;;;;5068902;28;20035;-62
2023/06/25 05:00:37;;;;;;;11.43;9.13;;;18.50;99.90;;;;;;5069406;28;20104;-63
2023/06/25 05:03:03;;;;;;;13.95;9.30;;;18.60;99.90;;;;;;5068451;28;20036;-62
2023/06/25 05:05:31;;;;;;;12.40;8.93;;;19.10;99.90;;;;;;5068374;28;20043;-63
2023/06/25 05:07:56;;;;;;;11.80;9.20;;;18.90;99.90;;;;;;5069509;28;20036;-63
2023/06/25 05:10:22;;;;;;;11.30;8.68;;;19.20;99.90;;;;;;5068987;28;20357;-63
2023/06/25 05:12:48;;;;;;;14.32;8.85;;;19.20;99.90;;;;;;5069453;28;20151;-63
2023/06/25 05:15:14;;;;;;;12.88;9.15;;;18.60;99.90;;;;;;5063484;28;20037;-63
2023/06/25 05:17:40;;;;;;;15.57;9.52;;;19.60;99.90;;;;;;5068935;28;20032;-63
2023/06/25 05:20:06;;;;;;;11.60;8.82;;;19.80;99.90;;;;;;5068891;28;20036;-62
2023/06/25 05:22:32;;;;;;;12.25;9.00;;;19.70;99.90;;;;;;5069155;28;20035;-63
2023/06/25 05:24:57;;;;;;;12.20;8.68;;;19.70;99.90;;;;;;5068968;28;20532;-63
2023/06/25 05:27:23;;;;;;;13.23;8.57;;;19.80;99.90;;;;;;5049806;28;20408;-62
2023/06/25 05:29:48;;;;;;;10.68;8.30;;;19.90;99.90;;;;;;5048847;28;20475;-62
2023/06/25 05:32:16;;;;;;;13.02;8.45;;;20.00;99.90;;;;;;5065734;28;20147;-62
2023/06/25 05:34:42;;;;;;;14.50;8.30;;;20.20;99.90;;;;;;5068138;28;20037;-63
2023/06/25 05:37:07;;;;;;;13.02;8.38;;;20.20;99.90;;;;;;5059831;28;20537;-62
2023/06/25 05:39:33;;;;;;;11.70;8.07;;;20.30;99.90;;;;;;5061538;28;20586;-63
2023/06/25 05:41:58;;;;;;;10.13;7.80;;;20.50;99.90;;;;;;5068096;28;20021;-62
2023/06/25 05:44:27;;;;;;;11.93;8.15;;;20.60;99.90;;;;;;5067947;28;20618;-62
2023/06/25 05:46:54;;;;;;;11.82;8.48;;;20.60;99.90;;;;;;5069429;28;20040;-63
2023/06/25 05:49:20;;;;;;;11.90;8.30;;;20.70;99.90;;;;;;5067673;28;20044;-62
2023/06/25 05:51:46;;;;;;;13.18;8.30;;;20.80;99.90;;;;;;5068161;28;20045;-63
2023/06/25 05:54:11;;;;;;;10.80;7.90;;;20.90;99.90;;;;;;5067851;28;20032;-62
2023/06/25 05:56:37;;;;;;;11.55;8.40;;;21.00;99.90;;;;;;5068029;28;20032;-62
2023/06/25 05:59:02;;;;;;;9.70;7.60;;;21.00;99.90;;;;;;5061096;28;20090;-62
2023/06/25 06:01:28;;;;;;;12.48;7.75;;;21.10;99.90;;;;;;5058799;28;20043;-62
2023/06/25 06:03:54;;;;;;;8.65;7.28;;;21.20;99.90;;;;;;5068462;28;20090;-62
2023/06/25 06:06:19;;;;;;;11.77;8.07;;;21.30;99.90;;;;;;5066238;28;20036;-62
2023/06/25 06:08:45;;;;;;;12.70;8.35;;;21.30;99.90;;;;;;5068077;28;20500;-62
2023/06/25 06:11:10;;;;;;;11.50;7.65;;;21.40;99.90;;;;;;5067263;28;20086;-63
2023/06/25 06:13:37;;;;;;;10.30;7.80;;;21.50;99.90;;;;;;5068303;28;20044;-63
2023/06/25 06:16:03;;;;;;;10.55;7.80;;;21.60;99.90;;;;;;5068622;28;20051;-62
2023/06/25 06:18:28;;;;;;;12.95;7.88;;;21.60;99.90;;;;;;5068409;28;20513;-63
2023/06/25 06:20:54;;;;;;;11.20;7.65;;;21.80;99.90;;;;;;5062165;28;20064;-63
2023/06/25 06:23:19;;;;;;;11.38;8.23;;;21.80;99.90;;;;;;5047438;28;20468;-63
2023/06/25 06:25:45;;;;;;;10.60;7.68;;;21.90;99.90;;;;;;5047343;28;20029;-63
2023/06/25 06:28:10;;;;;;;11.60;8.50;;;21.90;99.90;;;;;;5047759;28;20385;-62
2023/06/25 06:30:36;;;;;;;11.95;7.30;;;22.00;99.90;;;;;;5051670;28;20463;-63
2023/06/25 06:33:01;;;;;;;12.77;7.50;;;22.10;99.90;;;;;;5066783;28;20029;-61
2023/06/25 06:35:27;;;;;;;10.88;7.78;;;22.10;99.90;;;;;;5067741;28;20032;-62
2023/06/25 06:37:53;;;;;;;9.90;7.90;;;22.20;99.90;;;;;;5068178;28;20182;-63
2023/06/25 06:40:18;;;;;;;9.90;7.97;;;22.30;99.90;;;;;;5067434;28;20484;-63
2023/06/25 06:42:44;;;;;;;14.05;8.45;;;22.40;99.90;;;;;;5063310;28;20120;-63
2023/06/25 06:45:10;;;;;;;10.52;7.57;;;22.50;99.90;;;;;;5049997;28;20040;-63
2023/06/25 06:47:35;;;;;;;13.20;8.32;;;22.70;99.90;;;;;;5067724;28;20591;-63
2023/06/25 06:50:01;;;;;;;13.32;8.27;;;22.70;99.90;;;;;;5067210;28;20108;-63
2023/06/25 06:52:28;;;;;;;13.98;7.50;;;22.70;99.90;;;;;;5066526;28;20032;-63
2023/06/25 06:54:53;;;;;;;9.10;7.35;;;22.80;99.90;;;;;;5055581;28;20530;-63
2023/06/25 06:57:19;;;;;;;11.45;7.53;;;22.90;99.90;;;;;;5068118;28;20037;-63
2023/06/25 06:59:45;;;;;;;12.20;7.65;;;22.90;99.90;;;;;;5069953;28;20442;-63
2023/06/25 07:02:11;;;;;;;12.18;7.70;;;23.00;99.90;;;;;;5069159;28;20089;-62
2023/06/25 07:04:37;;;;;;;12.00;7.13;;;23.10;99.90;;;;;;5069105;28;20044;-63
2023/06/25 07:07:03;;;;;;;9.75;7.25;;;23.20;99.90;;;;;;5069230;28;20077;-63
2023/06/25 07:09:29;;;;;;;11.07;8.02;;;23.20;99.90;;;;;;5070001;28;20423;-62
2023/06/25 07:11:54;;;;;;;9.95;7.57;;;23.50;99.90;;;;;;5069787;28;20447;-63
2023/06/25 07:14:20;;;;;;;13.40;7.55;;;23.50;99.90;;;;;;5069640;28;20025;-62
2023/06/25 07:16:46;;;;;;;14.07;7.15;;;23.60;99.90;;;;;;5066810;28;20037;-63
2023/06/25 07:19:11;;;;;;;12.27;6.65;;;23.60;99.90;;;;;;5065990;28;20056;-63
2023/06/25 07:21:38;;;;;;;12.38;7.13;;;23.70;99.90;;;;;;5067961;28;20713;-63
2023/06/25 07:24:04;;;;;;;13.05;7.43;;;23.80;99.90;;;;;;5067753;28;20492;-63
2023/06/25 07:26:30;;;;;;;9.45;6.45;;;23.90;99.90;;;;;;5057498;28;20135;-63
2023/06/25 07:28:55;;;;;;;7.82;6.55;;;23.80;99.90;;;;;;5064656;28;20116;-63
2023/06/25 07:31:21;;;;;;;7.80;6.68;;;23.90;99.90;;;;;;5069280;28;20045;-63
2023/06/25 07:33:47;;;;;;;11.60;6.47;;;24.00;99.90;;;;;;5069386;28;20131;-64
2023/06/25 07:36:12;;;;;;;23.50;15.98;;;24.10;99.90;;;;;;5070255;28;20056;-63
2023/06/25 07:38:38;;;;;;;21.25;13.40;;;24.20;99.90;;;;;;5070497;28;20090;-63
2023/06/25 07:41:03;;;;;;;13.85;9.23;;;24.30;99.90;;;;;;5070606;28;20036;-63
2023/06/25 07:43:29;;;;;;;11.75;7.45;;;24.50;99.90;;;;;;5070964;28;20025;-64
2023/06/25 07:45:55;;;;;;;9.70;6.97;;;24.50;99.90;;;;;;5070238;28;20032;-64
2023/06/25 07:48:20;;;;;;;13.63;6.70;;;24.60;99.90;;;;;;5069023;28;20114;-63
2023/06/25 07:50:46;;;;;;;7.85;5.97;;;24.40;99.90;;;;;;5057054;28;20037;-63
2023/06/25 07:53:12;;;;;;;10.40;6.85;;;24.80;99.90;;;;;;5050201;28;20361;-63
2023/06/25 07:55:41;;;;;;;7.50;6.55;;;24.90;99.90;;;;;;5057921;28;20040;-63
2023/06/25 07:58:08;;;;;;;8.65;6.07;;;24.90;99.90;;;;;;5070190;28;20025;-63
2023/06/25 08:00:34;;;;;;;11.35;6.20;;;24.90;99.90;;;;;;5069575;28;20036;-63
2023/06/25 08:03:00;;;;;;;9.15;6.65;;;25.10;99.90;;;;;;5070711;28;20035;-64
2023/06/25 08:05:26;;;;;;;12.18;6.10;;;25.30;99.90;;;;;;5068695;28;20505;-64
2023/06/25 08:07:52;;;;;;;8.65;5.97;;;25.30;99.90;;;;;;5070779;28;20044;-64
2023/06/25 08:10:17;;;;;;;9.00;6.07;;;25.30;99.90;;;;;;5070355;28;20032;-64
2023/06/25 08:12:43;;;;;;;6.38;5.65;;;25.40;99.90;;;;;;5057499;28;20037;-64
2023/06/25 08:15:09;;;;;;;9.50;6.47;;;25.60;99.90;;;;;;5051124;28;20035;-63
2023/06/25 08:17:34;;;;;;;7.53;5.75;;;25.50;99.90;;;;;;5070051;28;20052;-64
2023/06/25 08:20:00;;;;;;;8.00;6.22;;;25.60;99.90;;;;;;5070599;28;20031;-63
2023/06/25 08:22:26;;;;;;;7.60;5.80;;;25.70;99.90;;;;;;5069082;28;20094;-63
2023/06/25 08:24:51;;;;;;;7.28;5.88;;;25.80;99.90;;;;;;5070014;28;20086;-63
2023/06/25 08:27:17;;;;;;;9.32;5.43;;;25.90;99.90;;;;;;5070019;28;20459;-63
2023/06/25 08:29:42;;;;;;;7.00;5.63;;;26.10;99.90;;;;;;5070402;28;20113;-64
2023/06/25 08:32:08;;;;;;;7.22;5.53;;;26.00;99.90;;;;;;5067477;28;20111;-63
2023/06/25 08:34:34;;;;;;;8.02;4.97;;;26.10;99.90;;;;;;5068988;28;20047;-63
2023/06/25 08:36:59;;;;;;;6.88;5.47;;;26.10;99.90;;;;;;5070144;28;20028;-63
2023/06/25 08:39:25;;;;;;;7.93;5.20;;;26.20;99.90;;;;;;5069471;28;20032;-64
2023/06/25 08:41:50;;;;;;;8.00;5.60;;;26.40;99.90;;;;;;5069458;28;20024;-64
2023/06/25 08:44:16;;;;;;;7.32;5.57;;;26.40;99.90;;;;;;5068464;28;20082;-63
2023/06/25 08:46:49;;;;;;;7.90;5.50;;;26.30;99.90;;;;;;5069840;28;20029;-64
2023/06/25 08:49:16;;;;;;;8.10;5.47;;;26.40;99.90;;;;;;5067582;28;20126;-64
2023/06/25 08:51:42;;;;;;;8.15;5.60;;;26.50;99.90;;;;;;5069677;28;20083;-64
2023/06/25 08:54:08;;;;;;;8.13;5.07;;;26.60;99.90;;;;;;5069055;28;20035;-64
2023/06/25 08:56:34;;;;;;;8.02;5.22;;;26.70;99.90;;;;;;5068370;28;20028;-64
2023/06/25 08:59:00;;;;;;;6.43;5.35;;;26.70;99.90;;;;;;5069245;28;20043;-64
2023/06/25 09:01:25;;;;;;;7.18;5.20;;;26.70;99.90;;;;;;5068926;28;20037;-64
2023/06/25 09:03:52;;;;;;;8.30;5.45;;;26.70;99.90;;;;;;5069363;28;20036;-64
2023/06/25 09:06:18;;;;;;;5.97;5.03;;;26.90;99.90;;;;;;5067605;28;20044;-64
2023/06/25 09:08:44;;;;;;;5.43;4.65;;;27.00;99.90;;;;;;5069476;28;20031;-64
2023/06/25 09:11:10;;;;;;;6.72;5.13;;;27.10;99.90;;;;;;5068700;28;20055;-64
2023/06/25 09:13:38;;;;;;;5.57;4.95;;;27.00;99.90;;;;;;5069202;28;20094;-63
2023/06/25 09:16:06;;;;;;;7.88;4.93;;;27.20;99.90;;;;;;5067146;28;20032;-63
2023/06/25 09:18:32;;;;;;;6.78;4.78;;;27.00;99.90;;;;;;5065577;28;20036;-64
2023/06/25 09:21:05;;;;;;;7.75;4.63;;;27.10;99.90;;;;;;5069348;28;20033;-64
2023/06/25 09:23:31;;;;;;;5.78;4.75;;;27.20;99.90;;;;;;5068360;28;20111;-64
2023/06/25 09:25:57;;;;;;;9.55;4.75;;;27.30;99.90;;;;;;5068712;28;20055;-64
2023/06/25 09:28:23;;;;;;;5.57;4.90;;;27.30;99.90;;;;;;5067804;28;20115;-64
2023/06/25 09:30:49;;;;;;;8.32;4.90;;;27.30;99.90;;;;;;5068695;28;20040;-64
2023/06/25 09:33:16;;;;;;;6.70;4.63;;;27.40;99.90;;;;;;5068054;28;20051;-64
2023/06/25 09:35:41;;;;;;;7.00;5.18;;;27.60;99.90;;;;;;5068692;28;20025;-63
2023/06/25 09:38:07;;;;;;;6.25;5.00;;;27.70;99.90;;;;;;5067747;28;20031;-63
2023/06/25 09:40:32;;;;;;;5.40;4.80;;;27.80;99.90;;;;;;5067685;28;20399;-64
2023/06/25 09:42:59;;;;;;;6.68;4.93;;;27.90;99.90;;;;;;5068608;28;20040;-64
2023/06/25 09:45:26;;;;;;;6.90;4.72;;;27.80;99.90;;;;;;5067445;28;20675;-63
2023/06/25 09:47:56;;;;;;;6.18;4.55;;;27.90;99.90;;;;;;5068671;28;20036;-63
2023/06/25 09:50:36;;;;;;;5.57;4.75;;;28.00;99.90;;;;;;5067564;28;20047;-63
2023/06/25 09:53:11;;;;;;;5.40;4.53;;;28.00;99.90;;;;;;5068101;28;20028;-62
2023/06/25 09:55:37;;;;;;;6.45;5.10;;;27.90;99.90;;;;;;5067734;28;20645;-63
2023/06/25 09:58:04;;;;;;;5.20;4.70;;;28.00;99.90;;;;;;5068266;28;20029;-63
2023/06/25 10:00:31;;;;;;;6.32;5.10;;;28.00;99.90;;;;;;5066933;28;20088;-64
2023/06/25 10:02:56;;;;;;;6.78;5.07;;;28.10;99.90;;;;;;5068029;28;20028;-63
2023/06/25 10:05:22;;;;;;;6.57;5.35;;;28.10;99.90;;;;;;5067024;28;20036;-63
2023/06/25 10:07:48;;;;;;;6.07;4.75;;;28.20;99.90;;;;;;5068271;28;20078;-63
2023/06/25 10:10:27;;;;;;;6.45;4.90;;;28.30;99.90;;;;;;5067695;28;20506;-63
2023/06/25 10:12:53;;;;;;;7.30;5.20;;;28.30;99.90;;;;;;5067625;28;20085;-64
2023/06/25 10:15:28;;;;;;;5.15;4.65;;;28.30;99.90;;;;;;5068119;28;20028;-64
2023/06/25 10:17:56;;;;;;;7.47;4.65;;;28.40;99.90;;;;;;5068040;28;20023;-63
2023/06/25 10:20:36;;;;;;;5.93;4.50;;;28.50;99.90;;;;;;5067837;28;20044;-63
2023/06/25 10:23:09;;;;;;;6.60;4.80;;;28.40;99.90;;;;;;5067074;28;20093;-62
2023/06/25 10:25:39;;;;;;;5.72;4.28;;;28.50;99.90;;;;;;5067839;28;20047;-63
2023/06/25 10:28:13;;;;;;;5.13;4.45;;;28.50;99.90;;;;;;5067502;28;20055;-63
2023/06/25 10:30:47;;;;;;;7.40;4.82;;;28.50;99.90;;;;;;5068493;28;20066;-63
2023/06/25 10:33:17;;;;;;;7.32;4.57;;;28.60;99.90;;;;;;5066753;28;20052;-63
2023/06/25 10:35:45;;;;;;;5.00;4.50;;;28.60;99.90;;;;;;5067687;28;20025;-63
2023/06/25 10:38:11;;;;;;;7.18;4.78;;;28.60;99.90;;;;;;5067475;28;20394;-63
2023/06/25 10:40:38;;;;;;;4.75;4.25;;;28.60;99.90;;;;;;5067954;28;20036;-63
2023/06/25 10:43:04;;;;;;;9.20;4.95;;;28.60;99.90;;;;;;5067310;28;20463;-63
2023/06/25 10:45:30;;;;;;;5.35;4.70;;;28.60;99.90;;;;;;5067032;28;20484;-64
2023/06/25 10:48:05;;;;;;;5.82;4.93;;;28.60;99.90;;;;;;5067948;28;20032;-63
2023/06/25 10:50:33;;;;;;;7.18;4.50;;;28.70;99.90;;;;;;5067426;28;20392;-63
2023/06/25 10:53:00;;;;;;;5.68;4.47;;;28.80;99.90;;;;;;5067575;28;20359;-63
2023/06/25 10:55:26;;;;;;;5.15;4.57;;;28.90;99.90;;;;;;5063248;28;21322;-63
2023/06/25 10:57:55;;;;;;;6.47;4.80;;;28.80;99.90;;;;;;5067846;28;20035;-63
2023/06/25 11:00:25;;;;;;;5.65;4.50;;;28.80;99.90;;;;;;5067254;28;20032;-63
2023/06/25 11:02:52;;;;;;;5.13;4.55;;;29.00;99.90;;;;;;5067420;28;20028;-64
2023/06/25 11:05:22;;;;;;;5.85;4.53;;;29.00;99.90;;;;;;5066722;28;20032;-63
2023/06/25 11:07:56;;;;;;;7.03;4.68;;;29.10;99.90;;;;;;5067260;28;20033;-63
2023/06/25 11:10:25;;;;;;;5.75;4.70;;;29.10;99.90;;;;;;5067291;28;20395;-63
2023/06/25 11:12:51;;;;;;;6.05;4.35;;;29.10;99.90;;;;;;5067683;28;20059;-63
2023/06/25 11:15:17;;;;;;;5.60;4.65;;;29.20;99.90;;;;;;5066775;28;20476;-64
2023/06/25 11:17:44;;;;;;;6.45;4.68;;;29.20;99.90;;;;;;5066828;28;20039;-63
2023/06/25 11:20:11;;;;;;;6.00;4.82;;;29.20;99.90;;;;;;5067477;28;20279;-63
2023/06/25 11:22:42;;;;;;;7.05;5.20;;;29.30;99.90;;;;;;5067561;28;20127;-65
2023/06/25 11:25:08;;;;;;;7.20;5.00;;;29.20;99.90;;;;;;5066461;28;20040;-62
2023/06/25 11:27:34;;;;;;;6.55;4.82;;;29.10;99.90;;;;;;5067361;28;20032;-63
2023/06/25 11:30:03;;;;;;;5.80;4.82;;;29.20;99.90;;;;;;5066887;28;20082;-63
2023/06/25 11:32:29;;;;;;;7.90;4.90;;;29.20;99.90;;;;;;5066738;28;20031;-64
2023/06/25 11:34:55;;;;;;;5.78;4.60;;;29.20;99.90;;;;;;5066728;28;20040;-63
2023/06/25 11:37:22;;;;;;;6.75;4.50;;;29.20;99.90;;;;;;5067248;28;20098;-63
2023/06/25 11:39:52;;;;;;;5.85;4.50;;;29.30;99.90;;;;;;5062836;28;20036;-63
2023/06/25 11:42:19;;;;;;;4.82;4.32;;;29.40;99.90;;;;;;5054346;28;20117;-63
2023/06/25 11:44:56;;;;;;;4.93;4.38;;;29.40;99.90;;;;;;5070531;28;20523;-63
2023/06/25 11:47:22;;;;;;;5.07;4.57;;;29.40;99.90;;;;;;5070070;28;20431;-63
2023/06/25 11:49:58;;;;;;;6.82;4.70;;;29.50;99.90;;;;;;5070917;28;20115;-63
2023/06/25 11:52:24;;;;;;;6.22;4.60;;;29.50;99.90;;;;;;5070304;28;20502;-63
2023/06/25 11:54:49;;;;;;;6.63;4.88;;;29.50;99.90;;;;;;5070239;28;20029;-63
2023/06/25 11:57:17;;;;;;;6.93;4.53;;;29.60;99.90;;;;;;5070137;28;20056;-63
2023/06/25 11:59:43;;;;;;;5.53;4.60;;;29.50;99.30;;;;;;5070650;28;20063;-63
2023/06/25 12:02:09;;;;;;;5.95;4.60;;;29.40;99.90;;;;;;5069115;28;20032;-63
2023/06/25 12:04:35;;;;;;;5.55;4.57;;;29.50;99.60;;;;;;5070078;28;20138;-63
2023/06/25 12:07:01;;;;;;;5.55;4.80;;;29.50;99.90;;;;;;5070616;28;20135;-63
2023/06/25 12:09:27;;;;;;;7.55;4.47;;;29.50;99.90;;;;;;5069933;28;20032;-63
2023/06/25 12:11:53;;;;;;;5.15;4.47;;;29.50;99.90;;;;;;5070432;28;20033;-63
2023/06/25 12:14:18;;;;;;;6.75;4.55;;;29.60;99.90;;;;;;5069145;28;20032;-63
2023/06/25 12:16:44;;;;;;;7.40;4.72;;;29.50;97.20;;;;;;5070540;28;20424;-63
2023/06/25 12:19:09;;;;;;;5.05;4.40;;;29.50;96.90;;;;;;5069448;28;20420;-63
2023/06/25 12:21:35;;;;;;;6.38;4.97;;;29.50;99.30;;;;;;5070388;28;20021;-63
2023/06/25 12:24:01;;;;;;;5.28;4.78;;;29.50;99.90;;;;;;5062690;28;20037;-63
2023/06/25 12:26:26;;;;;;;5.47;4.55;;;29.50;98.90;;;;;;5049289;28;20040;-63
2023/06/25 12:28:52;;;;;;;5.18;4.50;;;29.50;99.00;;;;;;5050294;28;20485;-63
2023/06/25 12:31:17;;;;;;;6.45;4.45;;;29.60;99.90;;;;;;5059407;28;20504;-63
2023/06/25 12:33:43;;;;;;;5.05;4.30;;;29.70;98.40;;;;;;5069236;28;20098;-63
2023/06/25 12:36:09;;;;;;;5.90;4.50;;;29.70;98.80;;;;;;5052275;28;20033;-64
2023/06/25 12:38:34;;;;;;;6.00;4.82;;;29.70;99.90;;;;;;5054158;28;20032;-63